createdAt,value
2022-11-17T00:00:41.729Z,72.38
2022-11-17T00:03:13.767Z,71.96
2022-11-17T00:05:40.193Z,71.96
2022-11-17T00:08:06.711Z,71.87
2022-11-17T00:10:33.142Z,72.05
2022-11-17T00:13:18.305Z,71.96
2022-11-17T00:15:44.805Z,71.86
2022-11-17T00:18:29.881Z,71.80
2022-11-17T00:21:15.093Z,71.78
2022-11-17T00:23:47.928Z,72.21
2022-11-17T00:26:27.407Z,72.40
2022-11-17T00:29:02.264Z,72.21
2022-11-17T00:31:50.185Z,71.61
2022-11-17T00:34:20.553Z,71.68
2022-11-17T00:36:50.883Z,71.65
2022-11-17T00:39:20.705Z,72.25
2022-11-17T00:41:47.572Z,71.75
2022-11-17T00:44:14.592Z,71.87
2022-11-17T00:46:42.295Z,71.14
2022-11-17T00:49:10.760Z,71.73
2022-11-17T00:51:37.600Z,72.28
2022-11-17T00:54:06.312Z,71.72
2022-11-17T00:56:33.677Z,71.73
2022-11-17T00:59:00.396Z,71.59
2022-11-17T01:01:27.366Z,71.40
2022-11-17T01:04:03.540Z,72.14
2022-11-17T01:06:37.749Z,71.86
2022-11-17T01:09:08.317Z,71.76
2022-11-17T01:11:34.830Z,71.64
2022-11-17T01:14:01.745Z,71.58
2022-11-17T01:16:30.151Z,71.21
2022-11-17T01:19:01.676Z,71.28
2022-11-17T01:21:31.099Z,71.27
2022-11-17T01:24:00.293Z,71.63
2022-11-17T01:26:38.098Z,72.13
2022-11-17T01:29:07.359Z,71.69
2022-11-17T01:31:38.861Z,71.89
2022-11-17T01:34:06.876Z,72.10
2022-11-17T01:36:56.160Z,72.65
2022-11-17T01:39:24.732Z,72.22
2022-11-17T01:41:52.925Z,72.56
2022-11-17T01:44:44.481Z,71.87
2022-11-17T01:47:28.343Z,71.62
2022-11-17T01:50:06.201Z,71.62
2022-11-17T01:52:36.598Z,72.05
2022-11-17T01:55:06.554Z,72.24
2022-11-17T01:57:50.294Z,71.71
2022-11-17T02:00:17.426Z,72.44
2022-11-17T02:02:47.766Z,72.30
2022-11-17T02:05:22.733Z,71.94
2022-11-17T02:07:54.613Z,71.30
2022-11-17T02:10:21.159Z,71.90
2022-11-17T02:12:48.695Z,71.86
2022-11-17T02:15:15.140Z,71.57
2022-11-17T02:17:43.463Z,71.51
2022-11-17T02:20:22.172Z,71.49
2022-11-17T02:23:43.765Z,71.97
2022-11-17T02:27:06.766Z,71.90
2022-11-17T02:30:07.448Z,72.46
2022-11-17T02:32:48.988Z,72.09
2022-11-17T02:35:35.326Z,71.65
2022-11-17T02:38:31.977Z,72.26
2022-11-17T02:41:10.169Z,72.46
2022-11-17T02:44:04.807Z,73.09
2022-11-17T02:47:00.062Z,73.23
2022-11-17T02:49:36.989Z,73.54
2022-11-17T02:52:05.974Z,72.83
2022-11-17T02:54:33.904Z,73.28
2022-11-17T02:57:00.623Z,73.43
2022-11-17T02:59:46.142Z,73.83
2022-11-17T03:02:48.878Z,73.35
2022-11-17T03:06:23.783Z,73.65
2022-11-17T03:09:13.540Z,74.60
2022-11-17T03:11:53.676Z,74.02
2022-11-17T03:14:32.630Z,72.86
2022-11-17T03:17:18.289Z,73.89
2022-11-17T03:19:57.256Z,73.63
2022-11-17T03:22:57.119Z,73.50
2022-11-17T03:25:27.052Z,73.29
2022-11-17T03:28:00.421Z,73.52
2022-11-17T03:30:34.612Z,73.40
2022-11-17T03:33:15.318Z,72.94
2022-11-17T03:35:52.263Z,72.40
2022-11-17T03:38:24.814Z,73.01
2022-11-17T03:40:57.717Z,72.72
2022-11-17T03:43:27.154Z,72.89
2022-11-17T03:46:01.005Z,72.70
2022-11-17T03:48:44.941Z,72.04
2022-11-17T03:51:33.162Z,72.22
2022-11-17T03:54:00.903Z,72.04
2022-11-17T03:56:58.448Z,71.96
2022-11-17T03:59:35.393Z,73.02
2022-11-17T04:02:02.351Z,72.16
2022-11-17T04:04:48.798Z,72.29
2022-11-17T04:07:15.300Z,73.06
2022-11-17T04:09:41.800Z,73.13
2022-11-17T04:12:27.429Z,72.87
2022-11-17T04:15:12.709Z,73.00
2022-11-17T04:17:39.354Z,73.64
2022-11-17T04:20:06.795Z,73.04
2022-11-17T04:22:33.229Z,73.17
2022-11-17T04:24:59.645Z,72.73
2022-11-17T04:27:44.562Z,72.93
2022-11-17T04:30:11.462Z,73.55
2022-11-17T04:32:37.914Z,73.27
2022-11-17T04:35:04.856Z,73.17
2022-11-17T04:37:31.320Z,73.10
2022-11-17T04:39:57.755Z,72.43
2022-11-17T04:42:24.263Z,72.85
2022-11-17T04:44:50.680Z,73.22
2022-11-17T04:47:17.154Z,72.33
2022-11-17T04:49:43.641Z,72.73
2022-11-17T04:52:10.130Z,72.83
2022-11-17T04:54:36.574Z,72.59
2022-11-17T04:57:03.140Z,72.57
2022-11-17T04:59:29.603Z,72.49
2022-11-17T05:01:58.793Z,73.11
2022-11-17T05:04:47.743Z,72.83
2022-11-17T05:07:14.272Z,72.98
2022-11-17T05:09:40.771Z,73.04
2022-11-17T05:12:27.886Z,72.90
2022-11-17T05:14:54.217Z,73.91
2022-11-17T05:17:20.632Z,73.92
2022-11-17T05:19:48.522Z,73.44
2022-11-17T05:22:38.094Z,73.30
2022-11-17T05:25:05.983Z,73.77
2022-11-17T05:27:36.160Z,73.61
2022-11-17T05:30:05.794Z,73.53
2022-11-17T05:32:32.572Z,73.56
2022-11-17T05:34:59.037Z,73.16
2022-11-17T05:37:25.595Z,73.09
2022-11-17T05:39:52.055Z,73.31
2022-11-17T05:42:18.657Z,73.14
2022-11-17T05:44:45.172Z,73.47
2022-11-17T05:47:11.681Z,73.62
2022-11-17T05:49:38.117Z,73.04
2022-11-17T05:52:04.820Z,73.14
2022-11-17T05:54:31.277Z,72.75
2022-11-17T05:57:09.429Z,72.39
2022-11-17T05:59:46.861Z,72.42
2022-11-17T06:02:24.071Z,72.33
2022-11-17T06:04:51.940Z,72.03
2022-11-17T06:07:19.603Z,72.77
2022-11-17T06:09:47.618Z,72.35
2022-11-17T06:12:15.136Z,72.36
2022-11-17T06:14:41.661Z,72.50
2022-11-17T06:17:35.467Z,71.81
2022-11-17T06:20:07.753Z,72.78
2022-11-17T06:22:35.144Z,72.73
2022-11-17T06:25:05.442Z,72.52
2022-11-17T06:27:33.757Z,72.66
2022-11-17T06:30:04.825Z,72.37
2022-11-17T06:32:36.513Z,72.15
2022-11-17T06:35:08.646Z,72.34
2022-11-17T06:37:35.087Z,72.62
2022-11-17T06:40:01.727Z,72.07
2022-11-17T06:42:47.157Z,72.03
2022-11-17T06:45:14.707Z,72.48
2022-11-17T06:47:41.151Z,71.66
2022-11-17T06:50:08.021Z,71.33
2022-11-17T06:52:34.461Z,70.95
2022-11-17T06:55:01.068Z,70.94
2022-11-17T06:57:27.563Z,71.15
2022-11-17T06:59:54.024Z,71.36
2022-11-17T07:02:20.506Z,71.12
2022-11-17T07:04:47.014Z,71.19
2022-11-17T07:07:13.678Z,70.95
2022-11-17T07:09:40.224Z,71.56
2022-11-17T07:12:06.763Z,71.75
2022-11-17T07:14:33.279Z,71.23
2022-11-17T07:16:59.767Z,71.66
2022-11-17T07:19:26.228Z,72.10
2022-11-17T07:21:52.775Z,72.32
2022-11-17T07:24:19.299Z,72.11
2022-11-17T07:26:45.836Z,72.34
2022-11-17T07:29:12.378Z,72.40
2022-11-17T07:31:38.854Z,72.04
2022-11-17T07:34:05.421Z,71.95
2022-11-17T07:36:31.912Z,71.80
2022-11-17T07:38:58.446Z,71.43
2022-11-17T07:41:24.923Z,72.14
2022-11-17T07:43:51.512Z,72.38
2022-11-17T07:46:18.227Z,72.65
2022-11-17T07:48:45.140Z,73.32
2022-11-17T07:51:13.967Z,72.82
2022-11-17T07:53:40.457Z,72.45
2022-11-17T07:56:11.755Z,72.76
2022-11-17T07:58:39.642Z,72.75
2022-11-17T08:01:15.361Z,72.23
2022-11-17T08:03:43.683Z,72.15
2022-11-17T08:06:10.305Z,72.43
2022-11-17T08:08:38.371Z,72.44
2022-11-17T08:11:09.174Z,72.23
2022-11-17T08:13:36.990Z,72.48
2022-11-17T08:16:04.526Z,72.74
2022-11-17T08:18:31.274Z,72.62
2022-11-17T08:21:13.814Z,72.78
2022-11-17T08:23:41.963Z,73.00
2022-11-17T08:26:11.347Z,72.15
2022-11-17T08:28:38.574Z,72.67
2022-11-17T08:31:07.447Z,72.59
2022-11-17T08:33:34.544Z,72.69
2022-11-17T08:36:03.665Z,73.38
2022-11-17T08:38:30.884Z,73.35
2022-11-17T08:41:08.467Z,73.18
2022-11-17T08:43:35.698Z,73.15
2022-11-17T08:46:02.724Z,73.14
2022-11-17T08:48:31.500Z,73.91
2022-11-17T08:50:59.234Z,73.69
2022-11-17T08:53:25.746Z,73.69
2022-11-17T08:55:52.346Z,73.91
2022-11-17T08:58:19.103Z,73.47
2022-11-17T09:00:47.289Z,73.80
2022-11-17T09:03:14.695Z,73.70
2022-11-17T09:05:45.171Z,73.38
2022-11-17T09:08:43.455Z,73.68
2022-11-17T09:11:09.382Z,73.46
2022-11-17T09:13:37.626Z,73.61
2022-11-17T09:16:10.759Z,73.64
2022-11-17T09:18:39.307Z,73.34
2022-11-17T09:21:13.406Z,72.71
2022-11-17T09:23:40.168Z,73.18
2022-11-17T09:26:10.651Z,73.16
2022-11-17T09:28:38.020Z,72.54
2022-11-17T09:31:17.713Z,72.26
2022-11-17T09:33:45.628Z,72.43
2022-11-17T09:36:15.472Z,72.62
2022-11-17T09:38:42.668Z,72.25
2022-11-17T09:41:22.561Z,72.35
2022-11-17T09:44:31.780Z,72.09
2022-11-17T09:47:35.278Z,72.44
2022-11-17T09:50:13.273Z,73.25
2022-11-17T09:53:09.857Z,72.88
2022-11-17T09:55:41.257Z,72.87
2022-11-17T09:58:38.605Z,72.49
2022-11-17T10:01:09.522Z,72.74
2022-11-17T10:03:42.033Z,72.99
2022-11-17T10:06:19.276Z,72.36
2022-11-17T10:09:13.050Z,72.71
2022-11-17T10:11:43.478Z,72.90
2022-11-17T10:14:15.851Z,72.66
2022-11-17T10:16:55.402Z,72.06
2022-11-17T10:19:26.876Z,72.01
2022-11-17T10:22:02.962Z,71.87
2022-11-17T10:24:38.775Z,71.28
2022-11-17T10:27:22.612Z,71.71
2022-11-17T10:30:01.185Z,71.19
2022-11-17T10:32:35.308Z,71.22
2022-11-17T10:35:20.283Z,70.91
2022-11-17T10:38:20.119Z,71.25
2022-11-17T10:40:50.938Z,71.39
2022-11-17T10:43:24.128Z,71.31
2022-11-17T10:46:00.538Z,70.84
2022-11-17T10:48:39.463Z,71.19
2022-11-17T10:51:20.859Z,70.69
2022-11-17T10:54:21.423Z,71.04
2022-11-17T10:56:53.590Z,71.04
2022-11-17T10:59:31.783Z,70.73
2022-11-17T11:02:18.816Z,70.85
2022-11-17T11:04:45.259Z,71.06
2022-11-17T11:07:23.868Z,71.70
2022-11-17T11:09:56.269Z,71.10
2022-11-17T11:13:04.201Z,70.58
2022-11-17T11:15:35.657Z,70.54
2022-11-17T11:18:12.124Z,70.42
2022-11-17T11:21:02.528Z,70.49
2022-11-17T11:23:49.723Z,71.00
2022-11-17T11:26:30.675Z,70.71
2022-11-17T11:30:02.472Z,70.38
2022-11-17T11:32:56.126Z,69.95
2022-11-17T11:35:50.270Z,70.60
2022-11-17T11:38:49.418Z,70.12
2022-11-17T11:41:35.521Z,70.86
2022-11-17T11:44:29.435Z,70.52
2022-11-17T11:47:36.772Z,69.71
2022-11-17T11:50:19.411Z,70.06
2022-11-17T11:52:56.052Z,69.55
2022-11-17T11:55:37.204Z,69.00
2022-11-17T11:58:24.136Z,68.74
2022-11-17T12:01:05.555Z,68.46
2022-11-17T12:03:48.446Z,68.20
2022-11-17T12:06:40.089Z,68.69
2022-11-17T12:09:13.397Z,68.92
2022-11-17T12:12:00.779Z,68.26
2022-11-17T12:14:35.447Z,68.62
2022-11-17T12:17:15.214Z,68.43
2022-11-17T12:19:44.985Z,68.46
2022-11-17T12:22:34.224Z,67.98
2022-11-17T12:25:16.042Z,67.77
2022-11-17T12:27:52.589Z,67.79
2022-11-17T12:30:34.336Z,67.96
2022-11-17T12:33:04.803Z,68.70
2022-11-17T12:35:34.487Z,68.67
2022-11-17T12:38:19.997Z,67.51
2022-11-17T12:40:49.663Z,68.06
2022-11-17T12:43:16.091Z,68.45
2022-11-17T12:46:18.226Z,68.52
2022-11-17T12:49:01.879Z,68.97
2022-11-17T12:51:57.388Z,67.66
2022-11-17T12:54:56.246Z,68.59
2022-11-17T12:57:32.938Z,68.36
2022-11-17T13:00:36.143Z,68.26
2022-11-17T13:03:16.123Z,68.42
2022-11-17T13:05:43.038Z,68.07
2022-11-17T13:08:24.301Z,67.36
2022-11-17T13:10:51.284Z,67.48
2022-11-17T13:13:24.531Z,66.44
2022-11-17T13:15:59.422Z,66.66
2022-11-17T13:18:38.461Z,66.97
2022-11-17T13:21:16.498Z,67.07
2022-11-17T13:23:45.168Z,67.17
2022-11-17T13:26:27.269Z,66.87
2022-11-17T13:29:26.330Z,66.70
2022-11-17T13:32:13.040Z,67.04
2022-11-17T13:35:01.094Z,67.42
2022-11-17T13:37:29.890Z,67.17
2022-11-17T13:40:19.669Z,67.04
2022-11-17T13:42:46.915Z,67.37
2022-11-17T13:45:16.977Z,67.04
2022-11-17T13:47:49.635Z,67.07
2022-11-17T13:50:25.909Z,66.92
2022-11-17T13:52:57.042Z,67.08
2022-11-17T13:55:25.788Z,67.36
2022-11-17T13:58:00.382Z,67.44
2022-11-17T14:00:28.638Z,67.59
2022-11-17T14:03:26.086Z,67.65
2022-11-17T14:05:59.277Z,67.83
2022-11-17T14:08:31.956Z,67.91
2022-11-17T14:11:21.382Z,67.94
2022-11-17T14:13:52.980Z,68.13
2022-11-17T14:16:24.959Z,68.00
2022-11-17T14:19:01.540Z,68.17
2022-11-17T14:21:29.268Z,68.18
2022-11-17T14:24:12.288Z,68.44
2022-11-17T14:26:44.777Z,68.68
2022-11-17T14:29:13.166Z,68.48
2022-11-17T14:31:39.776Z,68.45
2022-11-17T14:34:06.257Z,67.98
2022-11-17T14:36:33.542Z,68.10
2022-11-17T14:39:02.542Z,67.96
2022-11-17T14:41:29.351Z,67.89
2022-11-17T14:43:55.910Z,67.71
2022-11-17T14:46:27.083Z,67.47
2022-11-17T14:48:55.305Z,67.70
2022-11-17T14:51:22.183Z,67.99
2022-11-17T14:53:48.802Z,67.83
2022-11-17T14:56:19.253Z,67.49
2022-11-17T14:58:47.911Z,67.68
2022-11-17T15:01:28.639Z,67.87
2022-11-17T15:04:15.334Z,68.00
2022-11-17T15:06:48.009Z,68.22
2022-11-17T15:09:16.373Z,68.13
2022-11-17T15:11:42.953Z,68.50
2022-11-17T15:14:10.756Z,68.48
2022-11-17T15:16:37.259Z,69.04
2022-11-17T15:19:03.899Z,69.16
2022-11-17T15:21:30.412Z,68.96
2022-11-17T15:23:57.158Z,69.03
2022-11-17T15:26:23.746Z,69.28
2022-11-17T15:28:50.570Z,69.08
2022-11-17T15:31:20.892Z,68.83
2022-11-17T15:33:48.469Z,69.42
2022-11-17T15:36:18.819Z,69.01
2022-11-17T15:38:45.996Z,69.10
2022-11-17T15:41:14.062Z,69.34
2022-11-17T15:43:43.233Z,68.98
2022-11-17T15:46:18.193Z,68.80
2022-11-17T15:48:49.076Z,68.57
2022-11-17T15:51:19.682Z,68.65
2022-11-17T15:53:48.425Z,68.50
2022-11-17T15:56:27.993Z,68.38
2022-11-17T15:58:57.973Z,68.48
2022-11-17T16:01:27.020Z,68.42
2022-11-17T16:04:02.233Z,68.94
2022-11-17T16:06:30.775Z,68.75
2022-11-17T16:08:58.319Z,68.62
2022-11-17T16:11:27.007Z,69.01
2022-11-17T16:13:54.868Z,69.07
2022-11-17T16:16:23.764Z,68.33
2022-11-17T16:18:50.401Z,68.96
2022-11-17T16:21:17.998Z,69.12
2022-11-17T16:23:50.859Z,68.31
2022-11-17T16:26:19.475Z,68.81
2022-11-17T16:28:46.888Z,68.87
2022-11-17T16:31:31.877Z,68.65
2022-11-17T16:34:05.189Z,69.06
2022-11-17T16:36:37.368Z,69.41
2022-11-17T16:39:06.876Z,69.31
2022-11-17T16:41:37.096Z,69.58
2022-11-17T16:44:12.399Z,69.25
2022-11-17T16:46:41.951Z,69.77
2022-11-17T16:49:13.367Z,69.56
2022-11-17T16:51:40.281Z,70.04
2022-11-17T16:54:12.320Z,69.68
2022-11-17T16:56:39.126Z,69.71
2022-11-17T16:59:05.781Z,69.93
2022-11-17T17:01:35.339Z,69.87
2022-11-17T17:04:08.384Z,69.51
2022-11-17T17:06:37.226Z,69.63
2022-11-17T17:09:07.407Z,69.62
2022-11-17T17:11:36.048Z,69.95
2022-11-17T17:14:06.420Z,69.98
2022-11-17T17:16:35.717Z,70.10
2022-11-17T17:19:06.364Z,70.04
2022-11-17T17:21:34.318Z,70.02
2022-11-17T17:24:01.626Z,70.04
2022-11-17T17:26:31.864Z,69.55
2022-11-17T17:29:00.923Z,69.00
2022-11-17T17:31:38.082Z,68.99
2022-11-17T17:34:07.458Z,69.48
2022-11-17T17:36:36.462Z,70.00
2022-11-17T17:39:03.823Z,69.78
2022-11-17T17:41:34.334Z,69.92
2022-11-17T17:44:05.175Z,70.20
2022-11-17T17:46:37.876Z,70.47
2022-11-17T17:49:04.973Z,70.49
2022-11-17T17:51:31.687Z,70.14
2022-11-17T17:54:01.002Z,70.29
2022-11-17T17:56:30.232Z,70.72
2022-11-17T17:58:57.957Z,70.63
2022-11-17T18:01:27.870Z,70.16
2022-11-17T18:04:00.828Z,70.46
2022-11-17T18:06:27.419Z,70.96
2022-11-17T18:08:53.987Z,70.71
2022-11-17T18:11:21.134Z,70.43
2022-11-17T18:13:51.359Z,70.64
2022-11-17T18:16:28.313Z,70.57
2022-11-17T18:19:04.567Z,70.66
2022-11-17T18:21:32.213Z,70.48
2022-11-17T18:24:01.420Z,70.81
2022-11-17T18:26:34.247Z,70.66
2022-11-17T18:29:12.019Z,70.67
2022-11-17T18:31:38.663Z,70.54
2022-11-17T18:34:18.772Z,70.08
2022-11-17T18:36:45.274Z,70.11
2022-11-17T18:39:11.851Z,70.23
2022-11-17T18:41:38.502Z,69.83
2022-11-17T18:44:05.171Z,69.49
2022-11-17T18:46:32.907Z,70.17
2022-11-17T18:49:00.526Z,69.95
2022-11-17T18:51:30.444Z,69.41
2022-11-17T18:53:59.880Z,69.93
2022-11-17T18:56:37.378Z,70.50
2022-11-17T18:59:11.112Z,70.98
2022-11-17T19:01:40.501Z,71.36
2022-11-17T19:04:07.472Z,71.15
2022-11-17T19:06:34.678Z,70.67
2022-11-17T19:09:01.362Z,70.92
2022-11-17T19:11:33.554Z,71.10
2022-11-17T19:14:05.287Z,70.94
2022-11-17T19:16:33.183Z,70.81
2022-11-17T19:18:59.981Z,70.59
2022-11-17T19:21:33.448Z,70.62
2022-11-17T19:24:04.044Z,70.70
2022-11-17T19:26:33.709Z,70.66
2022-11-17T19:29:16.072Z,70.67
2022-11-17T19:31:45.101Z,70.82
2022-11-17T19:34:11.903Z,70.71
2022-11-17T19:36:38.787Z,70.61
2022-11-17T19:39:05.752Z,70.56
2022-11-17T19:41:38.240Z,70.71
2022-11-17T19:44:08.114Z,70.94
2022-11-17T19:46:38.878Z,70.90
2022-11-17T19:49:06.324Z,71.35
2022-11-17T19:51:38.650Z,71.05
2022-11-17T19:54:08.314Z,71.33
2022-11-17T19:56:35.942Z,71.54
2022-11-17T19:59:03.351Z,71.86
2022-11-17T20:01:31.875Z,72.15
2022-11-17T20:04:00.873Z,72.53
2022-11-17T20:06:33.926Z,72.63
2022-11-17T20:09:00.735Z,72.34
2022-11-17T20:11:28.608Z,72.58
2022-11-17T20:13:56.101Z,72.72
2022-11-17T20:16:26.152Z,72.41
2022-11-17T20:18:56.257Z,72.88
2022-11-17T20:21:24.404Z,73.43
2022-11-17T20:23:51.771Z,73.52
2022-11-17T20:26:31.748Z,73.03
2022-11-17T20:29:00.095Z,72.96
2022-11-17T20:31:31.383Z,73.07
2022-11-17T20:34:00.803Z,73.13
2022-11-17T20:36:30.004Z,73.28
2022-11-17T20:39:03.584Z,73.06
2022-11-17T20:41:31.098Z,72.78
2022-11-17T20:44:00.252Z,72.76
2022-11-17T20:46:27.635Z,72.63
2022-11-17T20:48:54.649Z,72.55
2022-11-17T20:51:24.196Z,72.13
2022-11-17T20:53:51.131Z,71.67
2022-11-17T20:56:18.567Z,71.58
2022-11-17T20:58:45.860Z,71.53
2022-11-17T21:01:19.875Z,71.58
2022-11-17T21:03:47.342Z,72.38
2022-11-17T21:06:14.607Z,73.30
2022-11-17T21:08:43.265Z,73.36
2022-11-17T21:11:33.683Z,73.11
2022-11-17T21:14:01.421Z,72.75
2022-11-17T21:16:28.757Z,72.28
2022-11-17T21:18:55.262Z,72.37
2022-11-17T21:21:21.983Z,72.34
2022-11-17T21:23:54.163Z,72.47
2022-11-17T21:26:22.808Z,72.95
2022-11-17T21:28:50.310Z,72.94
2022-11-17T21:31:25.889Z,72.37
2022-11-17T21:33:54.954Z,72.31
2022-11-17T21:36:23.526Z,72.67
2022-11-17T21:38:50.558Z,72.62
2022-11-17T21:41:20.931Z,72.34
2022-11-17T21:43:51.032Z,71.99
2022-11-17T21:46:23.168Z,71.90
2022-11-17T21:48:52.036Z,72.15
2022-11-17T21:51:26.498Z,72.11
2022-11-17T21:53:56.499Z,72.56
2022-11-17T21:56:26.489Z,72.89
2022-11-17T21:59:01.738Z,72.73
2022-11-17T22:01:29.958Z,72.88
2022-11-17T22:03:57.012Z,72.67
2022-11-17T22:06:25.578Z,72.25
2022-11-17T22:08:54.682Z,72.25
2022-11-17T22:11:37.809Z,72.21
2022-11-17T22:14:14.704Z,72.89
2022-11-17T22:16:46.056Z,73.89
2022-11-17T22:19:15.164Z,73.85
2022-11-17T22:21:42.976Z,74.13
2022-11-17T22:24:12.117Z,73.79
2022-11-17T22:26:41.391Z,73.76
2022-11-17T22:29:17.682Z,73.54
2022-11-17T22:31:45.401Z,73.95
2022-11-17T22:34:15.557Z,74.71
2022-11-17T22:36:42.166Z,74.06
2022-11-17T22:39:09.362Z,73.17
2022-11-17T22:41:35.981Z,73.37
2022-11-17T22:44:02.483Z,73.11
2022-11-17T22:46:29.237Z,73.83
2022-11-17T22:48:55.950Z,73.57
2022-11-17T22:51:41.493Z,73.71
2022-11-17T22:54:08.699Z,73.19
2022-11-17T22:56:35.831Z,72.28
2022-11-17T22:59:02.340Z,71.91
2022-11-17T23:01:29.027Z,72.23
2022-11-17T23:03:55.490Z,72.36
2022-11-17T23:06:27.109Z,71.62
2022-11-17T23:08:55.810Z,72.08
2022-11-17T23:11:36.618Z,71.84
2022-11-17T23:14:09.864Z,71.76
2022-11-17T23:16:37.902Z,72.65
2022-11-17T23:19:06.002Z,72.33
2022-11-17T23:21:32.766Z,72.20
2022-11-17T23:23:59.203Z,72.42
2022-11-17T23:26:25.726Z,72.61
2022-11-17T23:28:52.711Z,72.66
2022-11-17T23:31:19.273Z,72.40
2022-11-17T23:33:47.932Z,72.11
2022-11-17T23:36:19.975Z,72.45
2022-11-17T23:38:47.602Z,72.29
2022-11-17T23:41:17.508Z,72.01
2022-11-17T23:43:44.153Z,72.13
2022-11-17T23:46:14.008Z,72.23
2022-11-17T23:48:41.723Z,72.27
2022-11-17T23:51:30.165Z,71.78
2022-11-17T23:54:01.528Z,72.63
2022-11-17T23:56:32.408Z,72.51
2022-11-17T23:58:59.223Z,72.46
